Time;durP1;ratioP1;P1;durP2;ratioP2;P2;SDS_P1;SDS_P2;PMS_P1;PMS_P2;Temp;Humidity;BMP_temperature;BMP_pressure;BME280_temperature;BME280_humidity;BME280_pressure;Samples;Min_cycle;Max_cycle;Signal;HPM_P1;HPM_P2
2024/03/18 00:01:24;;;;;;;22.60;6.60;;;;;;;13.20;51.00;99877.79;107345;1263;59572;-67
2024/03/18 00:03:51;;;;;;;17.00;5.70;;;;;;;13.06;51.23;99879.02;108230;1251;59464;-67
2024/03/18 00:06:19;;;;;;;21.80;6.40;;;;;;;13.14;51.11;99878.45;108182;1251;71808;-69
2024/03/18 00:08:47;;;;;;;20.70;5.90;;;;;;;13.13;51.21;99879.38;108188;1251;70736;-68
2024/03/18 00:11:14;;;;;;;19.90;5.50;;;;;;;13.10;51.18;99876.36;108188;1251;72486;-67
2024/03/18 00:13:41;;;;;;;19.40;5.80;;;;;;;13.01;51.38;99875.77;108249;1250;166114;-67
2024/03/18 00:16:08;;;;;;;26.20;5.40;;;;;;;13.01;51.35;99875.80;108430;1251;60015;-67
2024/03/18 00:18:36;;;;;;;21.30;5.10;;;;;;;13.02;51.33;99873.08;108366;1251;72981;-67
2024/03/18 00:21:03;;;;;;;18.30;4.90;;;;;;;13.09;51.15;99879.42;108424;1251;70093;-67
2024/03/18 00:23:30;;;;;;;17.50;4.70;;;;;;;13.01;51.21;99877.55;108375;1250;72685;-67
2024/03/18 00:25:58;;;;;;;13.70;5.30;;;;;;;13.02;51.19;99873.79;108373;1251;60797;-67
2024/03/18 00:28:25;;;;;;;11.70;4.50;;;;;;;13.00;51.03;99869.83;108343;1254;60428;-67
2024/03/18 00:30:52;;;;;;;17.20;4.80;;;;;;;13.02;50.98;99873.77;108327;1249;73829;-67
2024/03/18 00:33:19;;;;;;;13.70;4.60;;;;;;;13.11;50.78;99873.29;108386;1250;70287;-67
2024/03/18 00:35:47;;;;;;;16.20;4.60;;;;;;;13.02;50.97;99875.87;108265;1251;73300;-67
2024/03/18 00:38:17;;;;;;;17.80;5.30;;;;;;;12.93;51.07;99877.23;108271;1250;60287;-67
2024/03/18 00:40:45;;;;;;;17.10;4.20;;;;;;;12.90;50.94;99871.58;108228;1250;60542;-67
2024/03/18 00:43:12;;;;;;;19.80;4.40;;;;;;;12.87;50.87;99872.61;108239;1250;72648;-66
2024/03/18 00:45:40;;;;;;;12.00;4.60;;;;;;;12.72;51.22;99872.85;108221;1250;70757;-67
2024/03/18 00:48:07;;;;;;;22.80;5.00;;;;;;;12.71;51.15;99874.48;108199;1250;72714;-67
2024/03/18 00:50:35;;;;;;;23.50;5.10;;;;;;;12.76;50.96;99871.89;108163;1251;60453;-68
2024/03/18 00:53:03;;;;;;;23.00;5.30;;;;;;;12.91;50.66;99867.64;108157;1251;60618;-67
2024/03/18 00:55:35;;;;;;;17.30;4.10;;;;;;;12.96;50.43;99871.25;108210;1250;73810;-67
2024/03/18 00:58:03;;;;;;;15.80;4.30;;;;;;;12.87;50.56;99875.77;108237;1251;71064;-68
2024/03/18 01:00:30;;;;;;;12.40;3.80;;;;;;;12.82;50.70;99873.56;108039;1253;72510;-68
2024/03/18 01:02:58;;;;;;;15.50;4.30;;;;;;;12.74;50.84;99873.93;108299;1252;60320;-68
2024/03/18 01:05:25;;;;;;;16.80;5.00;;;;;;;12.80;50.77;99870.13;108293;1256;60029;-66
2024/03/18 01:07:52;;;;;;;16.60;4.20;;;;;;;12.78;50.78;99872.31;108227;1251;72454;-67
2024/03/18 01:10:20;;;;;;;13.80;4.80;;;;;;;12.87;50.64;99868.55;108262;1251;70002;-68
2024/03/18 01:12:47;;;;;;;15.20;4.60;;;;;;;12.91;50.52;99867.69;108213;1250;72714;-67
2024/03/18 01:15:15;;;;;;;19.00;4.40;;;;;;;12.75;50.84;99868.98;108205;1250;60908;-66
2024/03/18 01:17:42;;;;;;;13.40;4.10;;;;;;;12.71;50.96;99869.17;108170;1256;60062;-67
2024/03/18 01:20:14;;;;;;;15.60;4.50;;;;;;;12.75;50.92;99869.48;108262;1256;71620;-68
2024/03/18 01:22:41;;;;;;;15.90;4.10;;;;;;;12.76;50.96;99866.99;108205;1250;70587;-67
2024/03/18 01:25:13;;;;;;;16.10;4.40;;;;;;;12.86;50.76;99871.61;108163;1251;71451;-67
2024/03/18 01:27:40;;;;;;;15.10;4.30;;;;;;;12.94;50.52;99868.55;108139;1250;60422;-67
2024/03/18 01:30:10;;;;;;;9.90;3.70;;;;;;;12.78;50.59;99867.74;108235;1251;60313;-67
2024/03/18 01:32:38;;;;;;;17.90;4.30;;;;;;;12.64;50.83;99871.48;108169;1250;73839;-67
2024/03/18 01:35:06;;;;;;;12.00;3.90;;;;;;;12.65;50.68;99872.45;108203;1253;69986;-67
2024/03/18 01:37:36;;;;;;;13.80;3.90;;;;;;;12.63;50.72;99866.77;108151;1251;72536;-68
2024/03/18 01:40:10;;;;;;;11.10;4.10;;;;;;;12.54;50.76;99864.71;108152;1253;60872;-67
2024/03/18 01:42:39;;;;;;;16.00;4.30;;;;;;;12.57;50.68;99863.71;108214;1252;60379;-67
2024/03/18 01:45:07;;;;;;;15.20;4.10;;;;;;;12.42;51.03;99866.58;108161;1251;72502;-67
2024/03/18 01:47:34;;;;;;;10.40;3.80;;;;;;;12.20;51.47;99866.77;108149;1253;69724;-67
2024/03/18 01:50:02;;;;;;;13.90;4.10;;;;;;;12.22;51.49;99862.94;108139;1256;72604;-67
2024/03/18 01:52:29;;;;;;;11.70;4.60;;;;;;;12.39;51.12;99863.87;108219;1253;60424;-67
2024/03/18 01:54:57;;;;;;;13.90;4.30;;;;;;;12.35;51.13;99860.00;108156;1253;60492;-67
2024/03/18 01:57:24;;;;;;;16.60;4.90;;;;;;;12.48;50.91;99861.20;108027;1254;72573;-67
2024/03/18 01:59:51;;;;;;;19.10;5.60;;;;;;;12.42;51.06;99857.95;108157;1251;68881;-67
2024/03/18 02:02:19;;;;;;;14.90;4.60;;;;;;;12.37;51.11;99858.51;108119;1257;72710;-67
2024/03/18 02:04:46;;;;;;;14.90;4.30;;;;;;;12.60;50.68;99857.04;108125;1253;60818;-67
2024/03/18 02:07:24;;;;;;;21.10;4.70;;;;;;;12.56;50.58;99854.63;108151;1251;60206;-67
2024/03/18 02:09:52;;;;;;;11.00;4.00;;;;;;;12.42;51.02;99855.44;108187;1253;72594;-67
2024/03/18 02:12:19;;;;;;;12.20;4.00;;;;;;;12.35;51.19;99852.10;108109;1256;68870;-67
2024/03/18 02:14:51;;;;;;;9.90;3.50;;;;;;;12.31;51.15;99854.06;108154;1254;71524;-67
2024/03/18 02:17:18;;;;;;;18.70;4.60;;;;;;;12.19;51.47;99857.82;108147;1253;60305;-67
2024/03/18 02:19:46;;;;;;;10.90;3.90;;;;;;;12.24;51.32;99854.07;108233;1253;60268;-67
2024/03/18 02:22:14;;;;;;;23.00;4.60;;;;;;;12.16;51.50;99853.73;108238;1254;73828;-67
2024/03/18 02:24:41;;;;;;;16.60;4.50;;;;;;;12.15;51.57;99852.21;108178;1253;70026;-67
2024/03/18 02:27:09;;;;;;;9.90;3.40;;;;;;;12.16;51.49;99847.02;108168;1253;73287;-67
2024/03/18 02:29:37;;;;;;;14.30;4.20;;;;;;;12.13;51.58;99845.11;108204;1252;60904;-66
2024/03/18 02:32:05;;;;;;;9.60;3.30;;;;;;;12.03;51.77;99847.50;107999;1253;60405;-67
2024/03/18 02:34:38;;;;;;;17.60;3.90;;;;;;;11.93;51.94;99844.09;108152;1250;72657;-67
2024/03/18 02:37:05;;;;;;;15.20;4.10;;;;;;;12.06;51.70;99848.40;108222;1256;69177;-66
2024/03/18 02:39:33;;;;;;;12.30;4.00;;;;;;;12.23;51.49;99850.92;108197;1253;72693;-67
2024/03/18 02:42:00;;;;;;;14.40;4.30;;;;;;;12.22;51.36;99850.48;108197;1250;60787;-67
2024/03/18 02:44:28;;;;;;;17.20;4.10;;;;;;;12.23;51.28;99849.34;108235;1250;60428;-67
2024/03/18 02:46:55;;;;;;;13.10;3.50;;;;;;;12.25;51.22;99849.95;108270;1250;73875;-66
2024/03/18 02:49:22;;;;;;;12.20;3.80;;;;;;;12.38;50.93;99849.13;108250;1254;70447;-66
2024/03/18 02:51:53;;;;;;;12.70;4.10;;;;;;;12.52;50.59;99848.31;108284;1250;71220;-67
2024/03/18 02:54:20;;;;;;;15.90;4.20;;;;;;;12.51;50.67;99844.65;108219;1251;63121;-67
2024/03/18 02:56:47;;;;;;;13.20;3.80;;;;;;;12.52;50.59;99846.35;108223;1251;60424;-67
2024/03/18 02:59:15;;;;;;;14.00;3.60;;;;;;;12.50;50.66;99846.98;108155;1251;72806;-68
2024/03/18 03:01:42;;;;;;;14.80;4.10;;;;;;;12.52;50.56;99843.88;108191;1251;70134;-67
2024/03/18 03:04:09;;;;;;;14.30;4.40;;;;;;;12.53;50.46;99843.30;108199;1253;72722;-67
2024/03/18 03:06:38;;;;;;;12.60;3.90;;;;;;;12.51;50.53;99842.54;108213;1250;60431;-69
2024/03/18 03:09:06;;;;;;;10.80;4.00;;;;;;;12.60;50.37;99838.20;108192;1251;59553;-67
2024/03/18 03:11:33;;;;;;;13.40;4.30;;;;;;;12.75;49.94;99837.61;108194;1250;73860;-67
2024/03/18 03:14:00;;;;;;;10.90;3.80;;;;;;;12.77;49.96;99840.14;108140;1250;70076;-67
2024/03/18 03:16:27;;;;;;;17.60;4.10;;;;;;;12.93;49.72;99840.43;108226;1250;72109;-66
2024/03/18 03:18:55;;;;;;;14.10;4.10;;;;;;;12.86;49.78;99843.92;108185;1250;60911;-67
2024/03/18 03:21:22;;;;;;;11.90;3.60;;;;;;;12.82;49.80;99845.02;108239;1251;60461;-66
2024/03/18 03:23:50;;;;;;;12.90;3.90;;;;;;;12.65;50.12;99837.96;108174;1251;72583;-66
2024/03/18 03:26:18;;;;;;;12.80;4.50;;;;;;;12.58;50.12;99838.98;108208;1250;68959;-67
2024/03/18 03:28:45;;;;;;;14.20;4.00;;;;;;;12.73;49.89;99840.72;108252;1251;72741;-67
2024/03/18 03:31:14;;;;;;;14.80;4.40;;;;;;;12.70;49.90;99838.77;108249;1250;60808;-67
2024/03/18 03:33:41;;;;;;;13.10;4.10;;;;;;;12.59;50.13;99835.77;108248;1250;60309;-66
2024/03/18 03:36:09;;;;;;;14.70;4.10;;;;;;;12.51;50.29;99837.77;108216;1251;75690;-66
2024/03/18 03:38:36;;;;;;;11.80;4.50;;;;;;;12.54;50.29;99832.35;108295;1253;69022;-67
2024/03/18 03:41:03;;;;;;;13.00;3.70;;;;;;;12.61;50.17;99832.68;108054;1251;72463;-66
2024/03/18 03:43:30;;;;;;;12.60;4.20;;;;;;;12.57;50.22;99830.97;108225;1252;60409;-67
2024/03/18 03:45:59;;;;;;;11.60;3.70;;;;;;;12.50;50.34;99836.09;108251;1252;60405;-67
2024/03/18 03:48:27;;;;;;;12.60;3.90;;;;;;;12.44;50.41;99833.35;108195;1251;74017;-66
2024/03/18 03:50:54;;;;;;;23.40;4.50;;;;;;;12.53;50.29;99829.73;108142;1253;70692;-67
2024/03/18 03:53:22;;;;;;;13.10;4.30;;;;;;;12.59;50.10;99828.20;108203;1253;72667;-67
2024/03/18 03:55:55;;;;;;;14.30;4.10;;;;;;;12.65;49.93;99827.02;108222;1251;60389;-66
2024/03/18 03:58:26;;;;;;;14.60;4.40;;;;;;;12.69;49.78;99825.79;108024;1251;60011;-66
2024/03/18 04:00:53;;;;;;;11.40;3.30;;;;;;;12.71;49.76;99827.27;108190;1253;73823;-66
2024/03/18 04:03:22;;;;;;;9.00;3.30;;;;;;;12.58;49.94;99829.30;108225;1254;70134;-66
2024/03/18 04:05:54;;;;;;;10.40;4.20;;;;;;;12.49;50.30;99832.59;108228;1251;72664;-67
2024/03/18 04:08:22;;;;;;;8.60;3.30;;;;;;;12.51;50.23;99832.66;108224;1252;61221;-66
2024/03/18 04:10:50;;;;;;;14.40;4.10;;;;;;;12.58;50.12;99830.89;108196;1251;61399;-67
2024/03/18 04:13:17;;;;;;;11.40;3.90;;;;;;;12.73;49.75;99832.80;108201;1253;74662;-67
2024/03/18 04:15:44;;;;;;;17.40;4.60;;;;;;;12.68;49.96;99831.44;108218;1254;70317;-66
2024/03/18 04:18:12;;;;;;;9.40;3.80;;;;;;;12.74;49.85;99831.17;108206;1252;72015;-67
2024/03/18 04:20:39;;;;;;;9.30;3.60;;;;;;;12.82;49.59;99830.42;108213;1252;61173;-66
2024/03/18 04:23:06;;;;;;;15.50;3.60;;;;;;;12.80;49.55;99832.77;108261;1251;61201;-67
2024/03/18 04:25:34;;;;;;;12.70;3.80;;;;;;;12.80;49.67;99833.86;108214;1252;74237;-68
2024/03/18 04:28:07;;;;;;;13.90;4.10;;;;;;;12.89;49.55;99835.51;108201;1251;69214;-68
2024/03/18 04:30:34;;;;;;;8.90;3.40;;;;;;;12.91;49.50;99835.23;108172;1253;71215;-67
2024/03/18 04:33:02;;;;;;;13.80;3.60;;;;;;;12.83;49.63;99834.39;108019;1254;61084;-67
2024/03/18 04:35:29;;;;;;;14.80;4.50;;;;;;;12.91;49.60;99836.48;108160;1250;61096;-68
2024/03/18 04:37:57;;;;;;;14.60;4.20;;;;;;;12.81;49.77;99835.39;108161;1250;74825;-67
2024/03/18 04:40:25;;;;;;;10.40;3.60;;;;;;;12.90;49.66;99832.30;108244;1250;70320;-68
2024/03/18 04:42:55;;;;;;;10.70;3.50;;;;;;;13.01;49.35;99831.35;108188;1250;71409;-68
2024/03/18 04:45:22;;;;;;;8.10;3.10;;;;;;;12.94;49.58;99836.99;108183;1256;61116;-67
2024/03/18 04:47:51;;;;;;;10.70;3.60;;;;;;;13.00;49.58;99843.77;108262;1251;61188;-67
2024/03/18 04:50:22;;;;;;;10.70;3.50;;;;;;;13.01;49.66;99840.36;108338;1251;74904;-68
2024/03/18 04:52:51;;;;;;;12.50;3.50;;;;;;;13.17;49.51;99837.05;108256;1256;69202;-68
2024/03/18 04:55:19;;;;;;;12.90;3.60;;;;;;;13.09;49.57;99837.81;108269;1254;72504;-67
2024/03/18 04:57:46;;;;;;;9.70;3.80;;;;;;;13.00;49.91;99836.72;108355;1254;61320;-68
2024/03/18 05:00:14;;;;;;;11.40;3.90;;;;;;;13.09;49.76;99833.42;108057;1254;62420;-67
2024/03/18 05:02:44;;;;;;;10.90;4.10;;;;;;;13.07;49.87;99839.52;108215;1253;74752;-67
2024/03/18 05:05:12;;;;;;;14.20;3.90;;;;;;;13.15;49.80;99837.17;108215;1254;70327;-67
2024/03/18 05:07:40;;;;;;;11.20;3.80;;;;;;;13.32;49.50;99837.73;108276;1251;72455;-67
2024/03/18 05:10:08;;;;;;;12.10;3.80;;;;;;;13.31;49.43;99839.19;108354;1254;60894;-68
2024/03/18 05:12:36;;;;;;;14.90;4.00;;;;;;;13.31;49.58;99841.67;108340;1253;61362;-67
2024/03/18 05:15:04;;;;;;;14.70;4.20;;;;;;;13.23;49.82;99844.15;108224;1252;74587;-67
2024/03/18 05:17:31;;;;;;;9.00;3.70;;;;;;;13.35;49.64;99847.42;108270;1253;69204;-67
2024/03/18 05:19:58;;;;;;;15.30;4.30;;;;;;;13.32;49.79;99844.97;108236;1252;72695;-67
2024/03/18 05:22:26;;;;;;;12.30;4.40;;;;;;;13.44;49.67;99845.34;108301;1254;61142;-67
2024/03/18 05:24:54;;;;;;;12.30;4.30;;;;;;;13.52;49.45;99847.02;108244;1253;60007;-67
2024/03/18 05:27:23;;;;;;;9.70;4.10;;;;;;;13.56;49.38;99849.33;108233;1251;74664;-67
2024/03/18 05:29:51;;;;;;;13.10;4.10;;;;;;;13.65;49.24;99849.69;108262;1254;68729;-67
2024/03/18 05:32:18;;;;;;;11.00;3.60;;;;;;;13.75;49.12;99848.11;108264;1254;72736;-67
2024/03/18 05:34:46;;;;;;;11.60;3.70;;;;;;;13.91;49.02;99848.14;108223;1254;61384;-67
2024/03/18 05:37:13;;;;;;;14.90;3.60;;;;;;;13.79;49.19;99849.83;108223;1254;61079;-67
2024/03/18 05:39:40;;;;;;;11.60;3.20;;;;;;;13.77;49.24;99854.90;108264;1251;73373;-67
2024/03/18 05:42:08;;;;;;;10.70;3.80;;;;;;;13.86;48.98;99852.09;108228;1251;68838;-67
2024/03/18 05:44:35;;;;;;;10.90;3.80;;;;;;;13.76;49.24;99856.71;108205;1251;72663;-68
2024/03/18 05:47:02;;;;;;;11.50;3.80;;;;;;;13.69;49.25;99849.86;108199;1251;61937;-67
2024/03/18 05:49:32;;;;;;;10.10;3.60;;;;;;;13.63;49.40;99853.70;108239;1256;61327;-67
2024/03/18 05:51:59;;;;;;;15.60;3.90;;;;;;;13.68;49.30;99854.66;108307;1253;73337;-67
2024/03/18 05:54:26;;;;;;;14.70;4.00;;;;;;;13.83;49.00;99856.31;108200;1251;69941;-67
2024/03/18 05:56:54;;;;;;;11.50;3.60;;;;;;;13.96;48.84;99854.01;108260;1253;73641;-67
2024/03/18 05:59:21;;;;;;;15.00;4.20;;;;;;;14.11;48.66;99855.46;108247;1251;61274;-66
2024/03/18 06:01:48;;;;;;;8.70;3.00;;;;;;;14.33;48.45;99859.38;108297;1251;59964;-67
2024/03/18 06:04:16;;;;;;;10.60;3.70;;;;;;;14.31;48.61;99861.96;108244;1251;74757;-68
2024/03/18 06:06:44;;;;;;;12.90;3.50;;;;;;;14.45;48.54;99862.02;108271;1251;70310;-67
2024/03/18 06:09:11;;;;;;;16.40;4.50;;;;;;;14.47;48.46;99863.70;108250;1251;72824;-67
2024/03/18 06:11:39;;;;;;;12.50;4.20;;;;;;;14.47;48.21;99861.03;108226;1251;60882;-67
2024/03/18 06:14:08;;;;;;;9.50;3.30;;;;;;;14.43;48.35;99857.17;108225;1251;61091;-68
2024/03/18 06:16:36;;;;;;;18.80;4.40;;;;;;;14.55;48.06;99857.79;108277;1251;73893;-68
2024/03/18 06:19:04;;;;;;;13.80;3.90;;;;;;;14.20;48.83;99855.13;108268;1256;70114;-67
2024/03/18 06:21:58;;;;;;;13.80;4.10;;;;;;;13.58;50.24;99858.37;108222;1250;71460;-67
2024/03/18 06:24:20;;;;;;;16.60;4.20;;;;;;;13.70;50.17;99857.71;108248;1253;61201;-67
2024/03/18 06:26:47;;;;;;;11.50;3.70;;;;;;;14.39;48.90;99857.96;108232;1251;60696;-67
2024/03/18 06:29:15;;;;;;;12.50;4.10;;;;;;;14.59;48.41;99862.85;108175;1250;74666;-69
2024/03/18 06:31:42;;;;;;;15.30;4.00;;;;;;;14.64;48.27;99862.94;108232;1250;68812;-67
2024/03/18 06:34:10;;;;;;;14.50;4.50;;;;;;;14.68;48.27;99862.86;108230;1250;73161;-67
2024/03/18 06:36:37;;;;;;;8.70;4.60;;;;;;;14.62;48.29;99862.34;108239;1251;61107;-66
2024/03/18 06:39:05;;;;;;;11.70;4.90;;;;;;;14.69;48.38;99864.91;108315;1255;60990;-67
2024/03/18 06:41:33;;;;;;;13.00;4.70;;;;;;;14.78;48.33;99860.67;108277;1251;75389;-67
2024/03/18 06:44:00;;;;;;;14.60;4.20;;;;;;;14.82;48.12;99857.63;108282;1256;70523;-67
2024/03/18 06:46:28;;;;;;;10.90;4.40;;;;;;;14.58;48.31;99853.16;108278;1254;72487;-67
2024/03/18 06:48:55;;;;;;;12.00;3.80;;;;;;;14.41;48.36;99849.19;108252;1251;61266;-67
2024/03/18 06:51:23;;;;;;;8.90;3.60;;;;;;;14.39;48.17;99850.17;108218;1251;61307;-67
2024/03/18 06:53:50;;;;;;;11.30;4.10;;;;;;;14.45;48.06;99851.04;108313;1250;74655;-67
2024/03/18 06:56:18;;;;;;;11.20;4.50;;;;;;;14.51;47.81;99856.39;108272;1251;70320;-67
2024/03/18 06:58:45;;;;;;;11.60;4.20;;;;;;;14.51;47.82;99854.78;108243;1254;71374;-67
2024/03/18 07:01:12;;;;;;;7.00;3.70;;;;;;;14.44;47.90;99847.43;108237;1252;61118;-68
2024/03/18 07:03:40;;;;;;;10.90;4.40;;;;;;;14.59;47.95;99841.81;108278;1251;61129;-67
2024/03/18 07:06:07;;;;;;;16.00;4.30;;;;;;;14.86;47.55;99848.16;108260;1252;74493;-67
2024/03/18 07:08:35;;;;;;;16.50;4.80;;;;;;;15.12;47.10;99848.04;108236;1251;71039;-67
2024/03/18 07:11:02;;;;;;;12.50;4.40;;;;;;;15.25;47.21;99841.62;108269;1254;73648;-67
2024/03/18 07:13:30;;;;;;;13.20;5.10;;;;;;;15.35;47.09;99844.03;108213;1251;63271;-67
2024/03/18 07:15:58;;;;;;;12.40;4.60;;;;;;;15.49;46.94;99842.60;108198;1251;60764;-67
2024/03/18 07:18:25;;;;;;;13.80;4.40;;;;;;;15.62;46.31;99843.01;108186;1252;73369;-67
2024/03/18 07:20:53;;;;;;;11.80;4.70;;;;;;;15.66;45.80;99840.83;108203;1251;69946;-67
2024/03/18 07:23:22;;;;;;;14.30;4.60;;;;;;;15.74;45.87;99838.45;108196;1253;75395;-67
2024/03/18 07:25:50;;;;;;;11.30;4.40;;;;;;;15.90;45.93;99836.40;108188;1251;61260;-67
2024/03/18 07:28:17;;;;;;;9.70;3.90;;;;;;;16.05;45.66;99839.11;108157;1256;59287;-67
2024/03/18 07:30:46;;;;;;;12.30;5.10;;;;;;;16.13;45.47;99840.35;108157;1251;74848;-66
2024/03/18 07:33:14;;;;;;;9.30;4.00;;;;;;;16.16;45.67;99843.01;108166;1251;70559;-67
2024/03/18 07:35:42;;;;;;;15.10;4.60;;;;;;;16.22;45.56;99839.46;108077;1254;73574;-67
2024/03/18 07:38:09;;;;;;;10.50;3.90;;;;;;;16.51;45.02;99838.08;108092;1256;61155;-67
2024/03/18 07:40:45;;;;;;;12.10;4.50;;;;;;;16.48;44.81;99831.33;108118;1253;62365;-67
2024/03/18 07:43:12;;;;;;;14.80;4.00;;;;;;;16.37;44.71;99835.61;108122;1253;74769;-67
2024/03/18 07:45:39;;;;;;;8.30;4.40;;;;;;;16.38;44.33;99837.52;108158;1253;72610;-67
2024/03/18 07:48:07;;;;;;;12.50;4.20;;;;;;;16.20;44.59;99840.83;108151;1254;74901;-68
2024/03/18 07:50:35;;;;;;;10.50;4.00;;;;;;;15.99;44.68;99839.70;108090;1254;61084;-67
2024/03/18 07:53:02;;;;;;;8.80;3.30;;;;;;;16.02;44.59;99842.14;108082;1254;61348;-68
2024/03/18 07:55:31;;;;;;;9.90;3.90;;;;;;;16.00;44.54;99839.95;108066;1254;74958;-67
2024/03/18 07:57:58;;;;;;;11.10;3.70;;;;;;;15.92;44.54;99841.00;108103;1254;69819;-68
2024/03/18 08:00:25;;;;;;;13.10;4.00;;;;;;;15.89;44.71;99841.54;108112;1254;72915;-67
2024/03/18 08:02:53;;;;;;;10.50;4.00;;;;;;;15.78;45.01;99841.59;108140;1254;61110;-67
2024/03/18 08:05:20;;;;;;;18.60;4.40;;;;;;;15.84;44.96;99838.91;108185;1254;60980;-68
2024/03/18 08:07:48;;;;;;;12.30;4.10;;;;;;;15.88;44.85;99832.77;108130;1254;73470;-67
2024/03/18 08:10:15;;;;;;;6.60;3.30;;;;;;;15.78;45.21;99832.20;108119;1254;72276;-66
2024/03/18 08:12:43;;;;;;;12.80;4.80;;;;;;;15.78;45.20;99829.90;108216;1254;72774;-66
2024/03/18 08:15:14;;;;;;;8.80;4.50;;;;;;;15.79;45.08;99831.92;108138;1253;61699;-67
2024/03/18 08:17:42;;;;;;;7.60;3.40;;;;;;;15.82;44.93;99827.16;108026;1253;59403;-67
2024/03/18 08:20:10;;;;;;;12.30;4.10;;;;;;;15.78;44.92;99826.14;108145;1254;75372;-67
2024/03/18 08:22:37;;;;;;;10.00;3.40;;;;;;;15.97;44.70;99828.13;108139;1254;69573;-68
2024/03/18 08:25:08;;;;;;;9.60;3.50;;;;;;;15.99;44.52;99828.52;108156;1253;73053;-66
2024/03/18 08:27:35;;;;;;;11.20;4.10;;;;;;;15.92;45.03;99824.89;108134;1257;60394;-67
2024/03/18 08:30:03;;;;;;;8.10;3.10;;;;;;;15.98;44.97;99821.88;108134;1257;61230;-71
2024/03/18 08:32:30;;;;;;;8.70;3.50;;;;;;;16.13;44.86;99825.66;108120;1254;73302;-66
2024/03/18 08:34:57;;;;;;;11.40;3.80;;;;;;;16.24;44.87;99827.09;108168;1257;72628;-67
2024/03/18 08:37:25;;;;;;;11.80;3.30;;;;;;;16.08;44.91;99831.26;108209;1251;72496;-67
2024/03/18 08:39:54;;;;;;;16.10;3.80;;;;;;;16.06;45.03;99828.75;108253;1251;61068;-68
2024/03/18 08:42:21;;;;;;;7.70;2.90;;;;;;;16.12;45.17;99830.84;108206;1255;61189;-66
2024/03/18 08:44:49;;;;;;;10.10;3.50;;;;;;;16.21;44.84;99828.88;108247;1251;73534;-67
2024/03/18 08:47:20;;;;;;;8.70;3.30;;;;;;;16.22;44.66;99831.13;108241;1251;70585;-67
2024/03/18 08:49:47;;;;;;;13.50;3.50;;;;;;;16.37;44.52;99827.45;108244;1252;72490;-67
2024/03/18 08:52:15;;;;;;;9.50;3.30;;;;;;;16.41;44.44;99827.56;108205;1254;61094;-67
2024/03/18 08:54:42;;;;;;;12.40;3.10;;;;;;;16.41;44.08;99825.63;108265;1251;61343;-67
2024/03/18 08:57:09;;;;;;;5.70;2.60;;;;;;;16.42;44.04;99827.87;108232;1251;75062;-67
2024/03/18 08:59:38;;;;;;;13.50;3.50;;;;;;;16.44;44.06;99821.73;108198;1251;68520;-67
2024/03/18 09:02:05;;;;;;;8.10;3.30;;;;;;;16.49;43.87;99821.36;108240;1251;72476;-67
2024/03/18 09:04:32;;;;;;;14.30;3.60;;;;;;;16.50;43.75;99818.80;108111;1256;61097;-68
2024/03/18 09:07:00;;;;;;;10.70;3.30;;;;;;;16.62;43.61;99819.41;108274;1251;61627;-67
2024/03/18 09:09:28;;;;;;;11.30;3.60;;;;;;;16.62;43.45;99816.44;108169;1251;75621;-67
2024/03/18 09:11:55;;;;;;;11.20;3.20;;;;;;;16.55;43.63;99813.66;108193;1257;68398;-67
2024/03/18 09:14:24;;;;;;;15.00;3.60;;;;;;;16.53;43.59;99822.69;108213;1251;72950;-67
2024/03/18 09:16:51;;;;;;;10.50;3.00;;;;;;;16.39;43.72;99819.35;108212;1254;61107;-67
2024/03/18 09:19:19;;;;;;;11.10;3.20;;;;;;;16.19;43.81;99821.95;108299;1256;61157;-67
2024/03/18 09:21:47;;;;;;;8.50;3.10;;;;;;;16.11;43.84;99822.09;108218;1251;72674;-67
2024/03/18 09:24:15;;;;;;;14.70;3.40;;;;;;;16.06;44.13;99818.33;108222;1251;70794;-67
2024/03/18 09:26:42;;;;;;;9.40;3.40;;;;;;;16.17;44.28;99820.45;108210;1253;72601;-68
2024/03/18 09:29:10;;;;;;;12.10;3.40;;;;;;;16.17;44.29;99816.26;108246;1253;61175;-67
2024/03/18 09:31:38;;;;;;;9.10;3.50;;;;;;;16.21;44.31;99818.96;108212;1251;60591;-67
2024/03/18 09:34:06;;;;;;;11.90;4.20;;;;;;;16.23;44.51;99814.05;108199;1251;76886;-67
2024/03/18 09:36:34;;;;;;;14.00;3.80;;;;;;;16.32;44.72;99810.99;108223;1251;69605;-67
2024/03/18 09:39:01;;;;;;;13.50;3.30;;;;;;;16.34;44.80;99809.97;108198;1254;74771;-67
2024/03/18 09:41:29;;;;;;;12.20;3.40;;;;;;;16.44;44.48;99805.04;108169;1254;61103;-67
2024/03/18 09:43:56;;;;;;;12.70;3.40;;;;;;;16.47;44.27;99805.16;108043;1257;61337;-67
2024/03/18 09:46:23;;;;;;;11.60;3.70;;;;;;;16.53;44.05;99799.30;108262;1251;76860;-67
2024/03/18 09:48:51;;;;;;;9.00;3.60;;;;;;;16.60;44.26;99800.45;108096;1251;70400;-67
2024/03/18 09:51:23;;;;;;;8.90;2.80;;;;;;;16.55;44.56;99799.87;108083;1251;71516;-67
2024/03/18 09:53:50;;;;;;;10.00;3.20;;;;;;;16.59;44.58;99794.80;108159;1251;61196;-67
2024/03/18 09:56:19;;;;;;;8.30;3.20;;;;;;;16.56;44.62;99792.05;108246;1251;61086;-67
2024/03/18 09:58:47;;;;;;;10.70;3.20;;;;;;;16.61;44.44;99789.23;108206;1254;73501;-67
2024/03/18 10:01:15;;;;;;;8.20;3.40;;;;;;;16.71;44.15;99787.13;108038;1254;70259;-68
2024/03/18 10:03:42;;;;;;;10.40;3.20;;;;;;;16.64;43.74;99784.56;108107;1256;73217;-67
2024/03/18 10:06:09;;;;;;;9.70;2.80;;;;;;;16.53;43.96;99782.98;108176;1252;61346;-67
2024/03/18 10:08:39;;;;;;;9.20;3.10;;;;;;;16.68;43.79;99780.95;108093;1254;62612;-67
2024/03/18 10:11:07;;;;;;;12.80;4.00;;;;;;;16.73;43.96;99779.20;108119;1254;75171;-67
2024/03/18 10:13:35;;;;;;;9.00;3.50;;;;;;;16.73;44.26;99777.04;108101;1253;70689;-68
2024/03/18 10:16:02;;;;;;;14.60;4.40;;;;;;;16.72;44.08;99776.92;108086;1254;74756;-67
2024/03/18 10:18:30;;;;;;;10.60;3.60;;;;;;;16.73;43.72;99772.45;108071;1255;61089;-67
2024/03/18 10:21:00;;;;;;;11.50;3.70;;;;;;;16.65;43.58;99773.52;108194;1254;61078;-67
2024/03/18 10:23:28;;;;;;;16.10;3.40;;;;;;;16.60;43.38;99769.63;107864;1254;74569;-68
2024/03/18 10:25:55;;;;;;;8.00;2.90;;;;;;;16.51;43.32;99766.64;108226;1252;71898;-67
2024/03/18 10:28:23;;;;;;;12.00;3.80;;;;;;;16.46;43.55;99766.96;108188;1253;72325;-67
2024/03/18 10:30:51;;;;;;;14.70;4.00;;;;;;;16.39;44.03;99764.83;108099;1252;61351;-67
2024/03/18 10:33:18;;;;;;;8.70;3.00;;;;;;;16.33;44.17;99764.32;108242;1254;62180;-67
2024/03/18 10:35:47;;;;;;;14.20;3.60;;;;;;;16.36;44.05;99762.89;108024;1254;76820;-67
2024/03/18 10:38:24;;;;;;;10.40;3.00;;;;;;;16.36;43.95;99761.48;108067;1253;69863;-67
2024/03/18 10:40:54;;;;;;;6.50;2.80;;;;;;;16.38;44.18;99755.84;108054;1254;73899;-67
2024/03/18 10:43:32;;;;;;;11.90;3.90;;;;;;;16.33;44.39;99754.37;108066;1254;62722;-67
2024/03/18 10:45:59;;;;;;;10.60;3.20;;;;;;;16.40;44.40;99754.45;108057;1253;61412;-67
2024/03/18 10:48:27;;;;;;;13.60;3.70;;;;;;;16.41;43.86;99751.73;108071;1253;76887;-67
2024/03/18 10:50:55;;;;;;;8.70;3.30;;;;;;;16.39;43.62;99748.33;108084;1253;69388;-67
2024/03/18 10:53:27;;;;;;;7.20;3.20;;;;;;;16.30;43.83;99749.45;108126;1254;72315;-67
2024/03/18 10:56:12;;;;;;;7.30;2.70;;;;;;;16.28;43.58;99749.09;108110;1254;61334;-66
2024/03/18 10:58:40;;;;;;;10.50;3.20;;;;;;;16.02;43.97;99753.05;108113;1254;61144;-66
2024/03/18 11:01:07;;;;;;;11.20;3.10;;;;;;;16.02;44.22;99750.77;108113;1254;73607;-66
2024/03/18 11:03:41;;;;;;;7.90;2.80;;;;;;;15.95;44.22;99751.95;108055;1254;72389;-67
2024/03/18 11:06:13;;;;;;;9.70;3.10;;;;;;;15.85;44.20;99752.61;108076;1254;72967;-67
2024/03/18 11:08:41;;;;;;;7.20;2.60;;;;;;;15.85;44.10;99749.62;108059;1253;61100;-66
2024/03/18 11:11:14;;;;;;;8.90;3.10;;;;;;;15.83;43.97;99755.42;108092;1254;61097;-66
2024/03/18 11:13:42;;;;;;;8.80;3.00;;;;;;;15.67;44.26;99750.73;108170;1252;77470;-66
2024/03/18 11:16:11;;;;;;;7.60;2.50;;;;;;;15.65;43.99;99746.27;108185;1256;69150;-66
2024/03/18 11:18:45;;;;;;;10.50;3.30;;;;;;;15.61;44.18;99747.54;108023;1254;73642;-66
2024/03/18 11:21:21;;;;;;;9.40;2.90;;;;;;;15.51;44.41;99745.73;108073;1252;63088;-67
2024/03/18 11:23:59;;;;;;;13.40;3.20;;;;;;;15.42;44.72;99740.41;108076;1256;62149;-67